createdAt,value
2023-02-13T00:00:29.056Z,11.00
2023-02-13T00:02:55.342Z,11.05
2023-02-13T00:05:21.638Z,10.70
2023-02-13T00:07:48.149Z,10.57
2023-02-13T00:10:14.500Z,10.38
2023-02-13T00:12:40.995Z,10.73
2023-02-13T00:15:07.543Z,11.15
2023-02-13T00:17:33.849Z,10.82
2023-02-13T00:20:00.166Z,10.40
2023-02-13T00:22:26.765Z,9.82
2023-02-13T00:24:53.004Z,10.45
2023-02-13T00:27:19.524Z,10.05
2023-02-13T00:29:45.839Z,10.38
2023-02-13T00:32:12.523Z,10.10
2023-02-13T00:34:39.117Z,10.48
2023-02-13T00:37:05.442Z,10.00
2023-02-13T00:39:31.728Z,10.45
2023-02-13T00:41:58.081Z,10.63
2023-02-13T00:44:24.418Z,10.52
2023-02-13T00:46:50.735Z,10.30
2023-02-13T00:49:17.067Z,9.00
2023-02-13T00:51:43.422Z,10.48
2023-02-13T00:54:09.838Z,9.63
2023-02-13T00:56:36.389Z,9.75
2023-02-13T00:59:02.795Z,9.32
2023-02-13T01:01:29.336Z,9.13
2023-02-13T01:03:55.776Z,10.57
2023-02-13T01:06:22.193Z,9.85
2023-02-13T01:08:48.562Z,9.20
2023-02-13T01:11:14.926Z,9.15
2023-02-13T01:13:41.235Z,9.68
2023-02-13T01:16:07.934Z,9.40
2023-02-13T01:18:34.240Z,10.23
2023-02-13T01:21:01.960Z,8.82
2023-02-13T01:23:31.670Z,10.50
2023-02-13T01:25:57.937Z,9.95
2023-02-13T01:28:24.351Z,10.75
2023-02-13T01:30:54.740Z,9.80
2023-02-13T01:33:21.846Z,10.23
2023-02-13T01:35:48.142Z,10.70
2023-02-13T01:38:14.381Z,10.25
2023-02-13T01:40:48.220Z,9.77
2023-02-13T01:43:15.021Z,9.48
2023-02-13T01:45:41.721Z,10.50
2023-02-13T01:48:13.691Z,9.27
2023-02-13T01:50:42.429Z,8.85
2023-02-13T01:53:14.217Z,9.73
2023-02-13T01:55:45.358Z,9.95
2023-02-13T01:58:13.597Z,9.80
2023-02-13T02:00:40.119Z,9.48
2023-02-13T02:03:12.419Z,9.65
2023-02-13T02:05:38.867Z,9.60
2023-02-13T02:08:08.438Z,9.20
2023-02-13T02:10:34.932Z,10.05
2023-02-13T02:13:12.435Z,10.77
2023-02-13T02:15:39.117Z,8.63
2023-02-13T02:18:19.227Z,9.30
2023-02-13T02:20:57.585Z,10.55
2023-02-13T02:23:29.935Z,9.20
2023-02-13T02:26:05.359Z,9.30
2023-02-13T02:28:37.718Z,10.25
2023-02-13T02:31:13.848Z,10.30
2023-02-13T02:33:43.592Z,9.38
2023-02-13T02:36:17.759Z,10.15
2023-02-13T02:39:00.508Z,8.60
2023-02-13T02:41:41.959Z,9.98
2023-02-13T02:44:40.584Z,9.68
2023-02-13T02:47:44.303Z,10.77
2023-02-13T02:50:10.637Z,9.68
2023-02-13T02:52:39.818Z,9.90
2023-02-13T02:55:20.432Z,9.25
2023-02-13T02:58:36.376Z,9.43
2023-02-13T03:01:22.239Z,9.40
2023-02-13T03:04:07.947Z,9.95
2023-02-13T03:06:40.574Z,9.43
2023-02-13T03:09:29.295Z,9.18
2023-02-13T03:12:15.152Z,9.48
2023-02-13T03:14:42.546Z,10.50
2023-02-13T03:17:29.780Z,9.57
2023-02-13T03:20:20.083Z,9.18
2023-02-13T03:22:56.329Z,9.97
2023-02-13T03:25:52.182Z,10.02
2023-02-13T03:28:55.056Z,9.30
2023-02-13T03:31:26.305Z,8.32
2023-02-13T03:33:52.607Z,10.35
2023-02-13T03:36:40.453Z,9.70
2023-02-13T03:39:15.272Z,9.48
2023-02-13T03:41:43.796Z,10.27
2023-02-13T03:44:15.598Z,9.27
2023-02-13T03:46:44.326Z,9.85
2023-02-13T03:49:32.031Z,10.60
2023-02-13T03:52:05.703Z,11.13
2023-02-13T03:54:54.016Z,10.85
2023-02-13T03:57:39.725Z,9.75
2023-02-13T04:00:09.166Z,9.07
2023-02-13T04:02:38.808Z,11.02
2023-02-13T04:05:08.670Z,10.70
2023-02-13T04:07:35.525Z,9.90
2023-02-13T04:10:06.778Z,10.00
2023-02-13T04:12:36.168Z,10.27
2023-02-13T04:15:16.515Z,10.50
2023-02-13T04:18:03.408Z,9.73
2023-02-13T04:20:31.328Z,11.02
2023-02-13T04:22:57.619Z,10.45
2023-02-13T04:25:23.870Z,10.85
2023-02-13T04:27:50.194Z,10.05
2023-02-13T04:30:16.518Z,9.65
2023-02-13T04:32:42.914Z,9.65
2023-02-13T04:35:11.490Z,10.55
2023-02-13T04:37:37.811Z,11.45
2023-02-13T04:40:04.315Z,10.32
2023-02-13T04:42:30.702Z,10.30
2023-02-13T04:44:57.093Z,10.00
2023-02-13T04:47:23.419Z,10.98
2023-02-13T04:49:49.660Z,11.13
2023-02-13T04:52:15.966Z,10.90
2023-02-13T04:54:42.383Z,9.77
2023-02-13T04:57:08.643Z,9.90
2023-02-13T04:59:34.928Z,11.02
2023-02-13T05:02:01.255Z,10.73
2023-02-13T05:04:28.809Z,11.32
2023-02-13T05:06:55.067Z,11.43
2023-02-13T05:09:21.449Z,11.32
2023-02-13T05:11:50.544Z,10.80
2023-02-13T05:14:16.764Z,9.40
2023-02-13T05:16:43.000Z,10.10
2023-02-13T05:19:09.330Z,9.95
2023-02-13T05:21:54.220Z,10.10
2023-02-13T05:24:20.775Z,9.98
2023-02-13T05:26:47.264Z,10.50
2023-02-13T05:29:19.543Z,8.90
2023-02-13T05:31:56.613Z,9.63
2023-02-13T05:34:24.081Z,9.68
2023-02-13T05:36:50.814Z,11.02
2023-02-13T05:39:17.337Z,10.23
2023-02-13T05:41:44.487Z,11.05
2023-02-13T05:44:10.963Z,10.10
2023-02-13T05:46:39.216Z,10.90
2023-02-13T05:49:06.597Z,10.13
2023-02-13T05:51:32.934Z,10.80
2023-02-13T05:53:59.229Z,11.10
2023-02-13T05:56:25.548Z,10.48
2023-02-13T05:58:55.567Z,11.00
2023-02-13T06:01:22.817Z,11.00
2023-02-13T06:03:49.181Z,11.10
2023-02-13T06:06:16.146Z,11.82
2023-02-13T06:08:42.704Z,11.23
2023-02-13T06:11:09.214Z,11.80
2023-02-13T06:13:35.476Z,12.82
2023-02-13T06:16:01.766Z,11.05
2023-02-13T06:18:28.078Z,12.20
2023-02-13T06:20:54.369Z,12.50
2023-02-13T06:23:20.687Z,12.60
2023-02-13T06:25:47.062Z,11.85
2023-02-13T06:28:13.377Z,11.90
2023-02-13T06:30:39.662Z,11.57
2023-02-13T06:33:06.088Z,11.85
2023-02-13T06:35:32.497Z,13.20
2023-02-13T06:37:59.021Z,13.10
2023-02-13T06:40:25.320Z,13.95
2023-02-13T06:42:51.606Z,12.23
2023-02-13T06:45:17.926Z,12.18
2023-02-13T06:47:45.048Z,12.05
2023-02-13T06:50:12.377Z,12.63
2023-02-13T06:52:38.769Z,11.65
2023-02-13T06:55:05.501Z,11.77
2023-02-13T06:57:34.484Z,13.40
2023-02-13T07:00:03.696Z,12.35
2023-02-13T07:02:30.009Z,12.25
2023-02-13T07:04:57.107Z,12.32
2023-02-13T07:07:23.413Z,11.75
2023-02-13T07:09:49.819Z,12.85
2023-02-13T07:12:16.120Z,12.40
2023-02-13T07:14:42.475Z,12.15
2023-02-13T07:17:10.908Z,13.55
2023-02-13T07:19:37.215Z,12.68
2023-02-13T07:22:03.505Z,13.27
2023-02-13T07:24:29.790Z,13.50
2023-02-13T07:26:56.049Z,13.45
2023-02-13T07:29:22.355Z,11.93
2023-02-13T07:31:48.709Z,12.55
2023-02-13T07:34:15.213Z,14.02
2023-02-13T07:36:41.445Z,12.07
2023-02-13T07:39:08.047Z,12.85
2023-02-13T07:41:34.343Z,12.52
2023-02-13T07:44:00.644Z,12.23
2023-02-13T07:46:27.050Z,13.60
2023-02-13T07:48:53.571Z,12.57
2023-02-13T07:51:20.018Z,13.00
2023-02-13T07:53:46.477Z,12.48
2023-02-13T07:56:12.773Z,11.57
2023-02-13T07:58:41.906Z,11.45
2023-02-13T08:01:08.936Z,12.48
2023-02-13T08:03:35.316Z,11.98
2023-02-13T08:06:01.934Z,13.45
2023-02-13T08:08:28.521Z,13.02
2023-02-13T08:11:13.851Z,13.82
2023-02-13T08:13:40.560Z,12.60
2023-02-13T08:16:06.945Z,11.93
2023-02-13T08:18:33.231Z,13.40
2023-02-13T08:21:01.372Z,13.18
2023-02-13T08:23:27.704Z,13.23
2023-02-13T08:25:55.148Z,12.30
2023-02-13T08:28:22.245Z,12.35
2023-02-13T08:30:48.607Z,13.90
2023-02-13T08:33:14.913Z,12.18
2023-02-13T08:35:41.194Z,12.43
2023-02-13T08:38:07.512Z,12.93
2023-02-13T08:40:33.888Z,11.80
2023-02-13T08:43:01.285Z,12.57
2023-02-13T08:45:27.570Z,13.55
2023-02-13T08:48:00.062Z,13.02
2023-02-13T08:50:27.425Z,11.38
2023-02-13T08:52:53.995Z,12.15
2023-02-13T08:55:20.599Z,12.82
2023-02-13T08:57:47.018Z,11.25
2023-02-13T09:00:13.597Z,12.10
2023-02-13T09:02:40.045Z,12.75
2023-02-13T09:05:07.611Z,11.07
2023-02-13T09:07:33.972Z,10.63
2023-02-13T09:10:00.312Z,9.52
2023-02-13T09:12:26.549Z,9.88
2023-02-13T09:14:53.104Z,10.10
2023-02-13T09:17:19.704Z,10.73
2023-02-13T09:19:47.060Z,9.80
2023-02-13T09:22:13.377Z,10.27
2023-02-13T09:24:39.935Z,10.60
2023-02-13T09:27:07.892Z,10.82
2023-02-13T09:29:34.517Z,11.02
2023-02-13T09:32:00.814Z,11.23
2023-02-13T09:34:27.158Z,10.45
2023-02-13T09:36:53.691Z,10.38
2023-02-13T09:39:20.005Z,9.68
2023-02-13T09:41:48.156Z,10.43
2023-02-13T09:44:33.845Z,8.27
2023-02-13T09:47:11.550Z,10.50
2023-02-13T09:49:41.467Z,10.70
2023-02-13T09:52:08.605Z,9.73
2023-02-13T09:54:35.720Z,10.02
2023-02-13T09:57:02.112Z,9.63
2023-02-13T09:59:34.361Z,10.68
2023-02-13T10:02:02.288Z,10.13
2023-02-13T10:04:36.441Z,10.52
2023-02-13T10:07:05.867Z,10.38
2023-02-13T10:09:52.355Z,11.60
2023-02-13T10:12:44.649Z,10.38
2023-02-13T10:15:13.966Z,10.88
2023-02-13T10:17:44.993Z,10.98
2023-02-13T10:20:22.608Z,10.85
2023-02-13T10:22:58.399Z,10.82
2023-02-13T10:25:25.884Z,10.88
2023-02-13T10:28:00.480Z,11.05
2023-02-13T10:30:40.560Z,11.40
2023-02-13T10:33:22.978Z,10.70
2023-02-13T10:35:52.040Z,10.52
2023-02-13T10:38:20.446Z,10.75
2023-02-13T10:40:56.068Z,10.50
2023-02-13T10:43:26.725Z,10.90
2023-02-13T10:46:05.034Z,11.60
2023-02-13T10:48:39.714Z,11.35
2023-02-13T10:51:13.211Z,10.95
2023-02-13T10:53:50.012Z,10.40
2023-02-13T10:56:39.540Z,10.00
2023-02-13T10:59:11.858Z,10.65
2023-02-13T11:01:52.970Z,10.52
2023-02-13T11:04:19.853Z,10.43
2023-02-13T11:06:55.056Z,10.52
2023-02-13T11:09:21.539Z,10.63
2023-02-13T11:11:47.831Z,11.10
2023-02-13T11:14:15.728Z,10.18
2023-02-13T11:16:44.364Z,9.68
2023-02-13T11:19:17.952Z,10.40
2023-02-13T11:21:45.429Z,10.70
2023-02-13T11:24:19.600Z,10.77
2023-02-13T11:26:50.413Z,10.88
2023-02-13T11:31:42.990Z,10.10
2023-02-13T11:34:24.358Z,10.52
2023-02-13T11:36:54.800Z,10.85
2023-02-13T11:39:22.517Z,9.85
2023-02-13T11:41:52.089Z,10.57
2023-02-13T11:44:26.320Z,9.02
2023-02-13T11:46:54.047Z,11.18
2023-02-13T11:49:21.915Z,10.32
2023-02-13T11:51:48.234Z,10.68
2023-02-13T11:54:26.357Z,10.30
2023-02-13T11:57:08.831Z,10.68
2023-02-13T11:59:42.704Z,9.57
2023-02-13T12:02:17.655Z,11.10
2023-02-13T12:04:44.386Z,9.48
2023-02-13T12:07:13.414Z,9.93
2023-02-13T12:09:40.734Z,9.18
2023-02-13T12:12:07.692Z,10.25
2023-02-13T12:14:38.024Z,9.75
2023-02-13T12:17:12.331Z,10.43
2023-02-13T12:19:49.455Z,9.50
2023-02-13T12:22:22.491Z,10.63
2023-02-13T12:24:57.457Z,10.07
2023-02-13T12:27:42.974Z,10.70
2023-02-13T12:30:12.171Z,9.77
2023-02-13T12:32:56.648Z,10.38
2023-02-13T12:35:35.375Z,9.55
2023-02-13T12:38:04.187Z,10.50
2023-02-13T12:40:36.695Z,9.63
2023-02-13T12:43:21.730Z,11.18
2023-02-13T12:45:56.220Z,9.65
2023-02-13T12:48:33.923Z,9.73
2023-02-13T12:51:06.439Z,10.30
2023-02-13T12:53:35.737Z,10.98
2023-02-13T12:56:11.394Z,9.50
2023-02-13T12:58:54.729Z,10.73
2023-02-13T13:01:39.289Z,10.02
2023-02-13T13:04:19.478Z,10.38
2023-02-13T13:06:45.694Z,10.32
2023-02-13T13:09:24.147Z,10.38
2023-02-13T13:11:53.585Z,10.35
2023-02-13T13:14:38.729Z,10.90
2023-02-13T13:17:21.127Z,10.65
2023-02-13T13:20:06.466Z,10.13
2023-02-13T13:22:34.749Z,9.60
2023-02-13T13:25:01.025Z,10.10
2023-02-13T13:27:36.783Z,9.63
2023-02-13T13:30:11.931Z,9.63
2023-02-13T13:32:38.994Z,10.25
2023-02-13T13:35:05.500Z,9.85
2023-02-13T13:37:36.423Z,10.23
2023-02-13T13:40:25.757Z,10.85
2023-02-13T13:42:54.080Z,10.77
2023-02-13T13:45:23.480Z,11.38
2023-02-13T13:47:52.878Z,10.70
2023-02-13T13:50:23.517Z,10.18
2023-02-13T13:55:41.847Z,10.13
2023-02-13T13:58:20.642Z,10.68
2023-02-13T14:00:46.922Z,10.23
2023-02-13T14:03:23.685Z,10.23
2023-02-13T14:06:05.658Z,10.80
2023-02-13T14:08:54.469Z,10.43
2023-02-13T14:11:29.101Z,10.75
2023-02-13T14:13:55.606Z,11.15
2023-02-13T14:16:42.613Z,11.70
2023-02-13T14:19:25.963Z,10.43
2023-02-13T14:21:52.496Z,10.90
2023-02-13T14:24:19.382Z,10.63
2023-02-13T14:27:05.294Z,10.27
2023-02-13T14:29:33.409Z,11.10
2023-02-13T14:32:02.220Z,10.27
2023-02-13T14:34:30.505Z,10.82
2023-02-13T14:37:41.139Z,11.38
2023-02-13T14:40:17.385Z,10.43
2023-02-13T14:42:49.652Z,11.30
2023-02-13T14:45:17.325Z,11.48
2023-02-13T14:47:53.399Z,11.48
2023-02-13T14:50:30.328Z,10.20
2023-02-13T14:52:58.655Z,10.63
2023-02-13T14:55:24.945Z,11.05
2023-02-13T14:57:58.809Z,11.05
2023-02-13T15:00:48.200Z,10.70
2023-02-13T15:03:25.280Z,10.65
2023-02-13T15:05:53.240Z,10.70
2023-02-13T15:08:20.893Z,11.13
2023-02-13T15:10:49.167Z,10.40
2023-02-13T15:13:15.396Z,10.48
2023-02-13T15:15:42.102Z,10.45
2023-02-13T15:18:20.384Z,10.23
2023-02-13T15:20:47.041Z,10.02
2023-02-13T15:23:23.453Z,11.50
2023-02-13T15:25:56.051Z,10.70
2023-02-13T15:28:23.679Z,11.13
2023-02-13T15:30:58.265Z,10.30
2023-02-13T15:33:26.942Z,10.25
2023-02-13T15:35:57.688Z,10.48
2023-02-13T15:40:50.990Z,9.20
2023-02-13T15:43:23.144Z,9.90
2023-02-13T15:45:49.638Z,9.95
2023-02-13T15:48:16.716Z,10.77
2023-02-13T15:50:43.705Z,10.00
2023-02-13T15:53:13.558Z,9.73
2023-02-13T15:55:39.798Z,9.77
2023-02-13T15:58:06.745Z,9.80
2023-02-13T16:00:33.932Z,10.57
2023-02-13T16:03:01.475Z,10.43
2023-02-13T16:05:39.446Z,10.10
2023-02-13T16:08:24.786Z,10.50
2023-02-13T16:11:08.296Z,10.07
2023-02-13T16:13:34.614Z,10.32
2023-02-13T16:16:02.506Z,11.00
2023-02-13T16:18:28.874Z,9.90
2023-02-13T16:20:56.168Z,9.35
2023-02-13T16:23:22.729Z,10.18
2023-02-13T16:25:49.135Z,10.70
2023-02-13T16:28:26.510Z,9.75
2023-02-13T16:30:52.782Z,9.32
2023-02-13T16:33:21.212Z,9.65
2023-02-13T16:35:55.210Z,10.65
2023-02-13T16:38:24.712Z,11.30
2023-02-13T16:40:50.985Z,9.75
2023-02-13T16:43:35.826Z,10.35
2023-02-13T16:46:20.471Z,10.45
2023-02-13T16:48:57.519Z,10.90
2023-02-13T16:51:26.004Z,9.95
2023-02-13T16:53:59.237Z,10.32
2023-02-13T16:56:25.794Z,10.45
2023-02-13T16:59:03.662Z,11.10
2023-02-13T17:01:29.980Z,9.60
2023-02-13T17:03:56.351Z,10.00
2023-02-13T17:06:24.273Z,9.77
2023-02-13T17:08:52.617Z,10.23
2023-02-13T17:11:19.328Z,10.82
2023-02-13T17:13:45.600Z,10.80
2023-02-13T17:16:12.004Z,10.60
2023-02-13T17:18:38.372Z,9.77
2023-02-13T17:21:05.484Z,11.10
2023-02-13T17:23:31.752Z,10.48
2023-02-13T17:25:58.848Z,11.65
2023-02-13T17:28:26.788Z,11.57
2023-02-13T17:30:56.094Z,10.68
2023-02-13T17:33:24.308Z,11.38
2023-02-13T17:35:51.137Z,11.60
2023-02-13T17:38:17.523Z,10.70
2023-02-13T17:40:43.969Z,11.25
2023-02-13T17:43:14.478Z,12.05
2023-02-13T17:45:41.190Z,11.00
2023-02-13T17:48:07.569Z,10.25
2023-02-13T17:50:34.540Z,11.85
2023-02-13T17:53:05.002Z,11.07
2023-02-13T17:55:31.948Z,11.20
2023-02-13T17:57:58.585Z,10.65
2023-02-13T18:00:26.918Z,11.05
2023-02-13T18:02:53.624Z,11.43
2023-02-13T18:05:20.337Z,11.55
2023-02-13T18:07:46.970Z,10.52
2023-02-13T18:10:23.767Z,11.20
2023-02-13T18:12:50.467Z,12.00
2023-02-13T18:15:16.988Z,11.55
2023-02-13T18:17:43.292Z,10.23
2023-02-13T18:20:12.160Z,12.50
2023-02-13T18:22:38.571Z,11.52
2023-02-13T18:25:05.520Z,10.48
2023-02-13T18:27:31.852Z,11.80
2023-02-13T18:29:58.420Z,11.82
2023-02-13T18:32:25.093Z,11.98
2023-02-13T18:34:51.447Z,10.98
2023-02-13T18:37:18.165Z,10.52
2023-02-13T18:39:44.472Z,11.02
2023-02-13T18:42:13.048Z,11.20
2023-02-13T18:44:39.940Z,10.63
2023-02-13T18:47:06.260Z,10.57
2023-02-13T18:49:32.642Z,10.48
2023-02-13T18:51:59.072Z,10.63
2023-02-13T18:54:25.325Z,12.40
2023-02-13T18:56:51.622Z,11.93
2023-02-13T18:59:18.638Z,11.98
2023-02-13T19:01:45.489Z,11.00
2023-02-13T19:04:12.312Z,13.02
2023-02-13T19:06:39.572Z,14.82
2023-02-13T19:09:06.068Z,13.10
2023-02-13T19:11:34.198Z,13.48
2023-02-13T19:14:01.466Z,12.82
2023-02-13T19:16:31.261Z,12.52
2023-02-13T19:18:58.942Z,11.82
2023-02-13T19:21:26.955Z,11.57
2023-02-13T19:23:53.378Z,11.07
2023-02-13T19:26:20.902Z,10.20
2023-02-13T19:28:47.392Z,10.40
2023-02-13T19:31:16.147Z,10.25
2023-02-13T19:33:42.875Z,10.90
2023-02-13T19:36:11.873Z,9.50
2023-02-13T19:38:43.067Z,10.10
2023-02-13T19:41:11.245Z,9.00
2023-02-13T19:43:37.820Z,10.30
2023-02-13T19:46:05.580Z,9.68
2023-02-13T19:48:32.371Z,9.60
2023-02-13T19:50:59.004Z,9.80
2023-02-13T19:53:25.564Z,10.38
2023-02-13T19:55:58.316Z,8.45
2023-02-13T19:58:24.559Z,8.45
2023-02-13T20:00:50.931Z,11.20
2023-02-13T20:03:17.270Z,11.75
2023-02-13T20:05:43.904Z,11.15
2023-02-13T20:08:10.309Z,10.00
2023-02-13T20:10:36.851Z,9.70
2023-02-13T20:13:04.085Z,9.75
2023-02-13T20:15:32.437Z,13.63
2023-02-13T20:17:58.850Z,12.07
2023-02-13T20:20:27.769Z,10.52
2023-02-13T20:22:54.123Z,11.57
2023-02-13T20:25:22.105Z,10.95
2023-02-13T20:27:48.388Z,9.60
2023-02-13T20:30:15.531Z,10.25
2023-02-13T20:32:42.080Z,9.30
2023-02-13T20:35:08.639Z,8.10
2023-02-13T20:37:35.332Z,8.50
2023-02-13T20:40:01.677Z,10.02
2023-02-13T20:42:28.132Z,8.38
2023-02-13T20:44:54.635Z,8.63
2023-02-13T20:47:21.067Z,8.63
2023-02-13T20:49:47.655Z,8.18
2023-02-13T20:52:14.295Z,7.80
2023-02-13T20:54:40.648Z,7.30
2023-02-13T20:57:07.161Z,7.38
2023-02-13T20:59:33.537Z,7.28
2023-02-13T21:02:00.515Z,9.40
2023-02-13T21:04:29.006Z,11.35
2023-02-13T21:06:55.756Z,7.18
2023-02-13T21:09:22.118Z,7.45
2023-02-13T21:11:48.408Z,6.95
2023-02-13T21:14:14.711Z,6.63
2023-02-13T21:16:41.599Z,6.82
2023-02-13T21:19:11.468Z,7.40
2023-02-13T21:21:38.744Z,7.15
2023-02-13T21:24:08.175Z,8.40
2023-02-13T21:26:35.082Z,7.47
2023-02-13T21:29:01.500Z,7.95
2023-02-13T21:31:30.264Z,8.07
2023-02-13T21:34:00.603Z,7.50
2023-02-13T21:36:27.030Z,8.73
2023-02-13T21:38:53.457Z,7.53
2023-02-13T21:41:19.803Z,6.72
2023-02-13T21:43:49.386Z,7.32
2023-02-13T21:46:15.672Z,7.40
2023-02-13T21:48:42.300Z,8.98
2023-02-13T21:51:10.032Z,9.30
2023-02-13T21:53:36.458Z,8.65
2023-02-13T21:56:04.084Z,11.25
2023-02-13T21:58:33.911Z,10.02
2023-02-13T22:01:00.941Z,11.35
2023-02-13T22:03:27.553Z,10.63
2023-02-13T22:05:53.920Z,11.85
2023-02-13T22:08:20.153Z,8.57
2023-02-13T22:10:56.627Z,8.65
2023-02-13T22:13:23.364Z,8.88
2023-02-13T22:16:05.918Z,9.50
2023-02-13T22:18:35.960Z,8.02
2023-02-13T22:21:06.206Z,7.80
2023-02-13T22:23:35.240Z,8.20
2023-02-13T22:26:03.545Z,9.70
2023-02-13T22:28:29.897Z,9.55
2023-02-13T22:30:56.620Z,9.50
2023-02-13T22:33:23.136Z,9.65
2023-02-13T22:35:49.458Z,10.18
2023-02-13T22:38:15.727Z,10.50
2023-02-13T22:40:42.038Z,10.93
2023-02-13T22:43:08.500Z,8.90
2023-02-13T22:45:35.504Z,10.55
2023-02-13T22:48:01.850Z,8.65
2023-02-13T22:50:28.132Z,10.70
2023-02-13T22:52:54.474Z,9.88
2023-02-13T22:55:20.908Z,9.63
2023-02-13T22:57:48.352Z,9.98
2023-02-13T23:00:14.775Z,10.63
2023-02-13T23:02:41.141Z,9.52
2023-02-13T23:05:07.572Z,9.90
2023-02-13T23:07:33.817Z,8.95
2023-02-13T23:10:00.113Z,8.77
2023-02-13T23:12:40.093Z,10.02
2023-02-13T23:15:07.838Z,9.85
2023-02-13T23:17:52.725Z,9.23
2023-02-13T23:20:20.300Z,8.18
2023-02-13T23:22:46.924Z,9.07
2023-02-13T23:25:13.626Z,9.68
2023-02-13T23:27:39.968Z,8.85
2023-02-13T23:30:07.407Z,9.88
2023-02-13T23:32:33.926Z,8.40
2023-02-13T23:35:00.276Z,8.00
2023-02-13T23:37:26.645Z,8.73
2023-02-13T23:39:52.920Z,9.50
2023-02-13T23:42:19.190Z,8.27
2023-02-13T23:44:45.477Z,9.43
2023-02-13T23:47:11.708Z,7.88
2023-02-13T23:49:37.992Z,9.20
2023-02-13T23:52:04.264Z,7.80
2023-02-13T23:54:30.547Z,8.25
2023-02-13T23:56:57.024Z,8.43
2023-02-13T23:59:23.709Z,9.23
